Berkeley Township, New Jersey
Current Conditions -  °F | °C
As of 8:55 AM on Saturday 25 Oct 2014 (Local Time) from KMJX Reporting Station
Clear Clear  
Wind Chill: 10°   Ceiling: Unl
Heat Index: 10°   Visibility: 10mi
Dew Point:   Wind: 3mph
Humidity: 58%   Direction: 290°WNW
Pressure: 29.91"   Gusts: NA
Location:  39.9559°N, 74.2574°W
Report Text: KMJX 251255Z AUTO 29003KT 10SM CLR 10/02 A2991 RMK AO1
Loading
Personal Weather Stations






























Interactive Weather Map
Tropical Storm Tracking
New forecast layout! Learn more

10-Day Weather Forecast

Advertisements
Track Severe Weather on mobile